createdAt,value
2022-08-04T00:03:35.063Z,95273.72
2022-08-04T00:07:43.904Z,95268.09
2022-08-04T00:11:29.204Z,95271.66
2022-08-04T00:15:15.048Z,95277.59
2022-08-04T00:19:04.771Z,95274.69
2022-08-04T00:22:48.847Z,95277.59
2022-08-04T00:26:31.881Z,95273.81
2022-08-04T00:30:15.019Z,95274.41
2022-08-04T00:33:58.284Z,95272.81
2022-08-04T00:37:45.217Z,95275.00
2022-08-04T00:41:32.389Z,95274.66
2022-08-04T00:45:35.620Z,95277.00
2022-08-04T00:49:50.405Z,95270.72
2022-08-04T00:53:37.686Z,95263.34
2022-08-04T00:57:33.871Z,95270.13
2022-08-04T01:01:28.440Z,95268.38
2022-08-04T01:05:17.005Z,95276.75
2022-08-04T01:09:11.197Z,95269.53
2022-08-04T01:13:30.822Z,95275.28
2022-08-04T01:17:21.989Z,95272.94
2022-08-04T01:21:40.631Z,95272.75
2022-08-04T01:25:48.015Z,95276.28
2022-08-04T01:29:44.048Z,95276.59
2022-08-04T01:33:31.141Z,95274.50
2022-08-04T01:37:46.576Z,95275.09
2022-08-04T01:41:32.182Z,95273.25
2022-08-04T01:45:17.267Z,95270.06
2022-08-04T01:49:00.459Z,95279.69
2022-08-04T01:52:49.003Z,95272.75
2022-08-04T01:56:33.770Z,95274.34
2022-08-04T02:00:19.885Z,95278.06
2022-08-04T02:04:19.840Z,95286.66
2022-08-04T02:08:16.814Z,95287.47
2022-08-04T02:12:05.508Z,95280.81
2022-08-04T02:16:05.120Z,95287.22
2022-08-04T02:20:00.145Z,95271.97
2022-08-04T02:23:43.162Z,95277.56
2022-08-04T02:27:59.398Z,95271.72
2022-08-04T02:31:41.193Z,95275.72
2022-08-04T02:35:27.691Z,95273.81
2022-08-04T02:39:12.053Z,95281.56
2022-08-04T02:42:58.857Z,95276.69
2022-08-04T02:46:43.140Z,95273.19
2022-08-04T02:50:28.836Z,95271.03
2022-08-04T02:54:12.292Z,95267.84
2022-08-04T02:57:55.613Z,95268.94
2022-08-04T03:01:56.465Z,95267.94
2022-08-04T03:06:01.133Z,95263.66
2022-08-04T03:10:28.640Z,95265.25
2022-08-04T03:14:47.758Z,95252.44
2022-08-04T03:19:04.454Z,95258.81
2022-08-04T03:23:20.603Z,95258.53
2022-08-04T03:27:13.528Z,95261.53
2022-08-04T03:31:11.329Z,95260.50
2022-08-04T03:35:05.203Z,95263.97
2022-08-04T03:39:15.367Z,95265.56
2022-08-04T03:43:59.007Z,95273.03
2022-08-04T03:47:46.206Z,95266.34
2022-08-04T03:51:54.742Z,95269.03
2022-08-04T03:55:54.518Z,95273.59
2022-08-04T03:59:55.531Z,95277.06
2022-08-04T04:04:04.779Z,95267.16
2022-08-04T04:08:01.902Z,95270.09
2022-08-04T04:12:16.561Z,95271.44
2022-08-04T04:16:22.467Z,95273.31
2022-08-04T04:20:20.018Z,95280.81
2022-08-04T04:24:12.159Z,95280.78
2022-08-04T04:28:44.599Z,95279.19
2022-08-04T04:32:24.108Z,95282.41
2022-08-04T04:36:13.311Z,95278.13
2022-08-04T04:40:11.383Z,95281.84
2022-08-04T04:44:14.305Z,95279.19
2022-08-04T04:48:09.014Z,95282.41
2022-08-04T04:51:58.248Z,95285.34
2022-08-04T04:55:48.079Z,95293.59
2022-08-04T04:59:34.842Z,95289.84
2022-08-04T05:03:40.634Z,95302.13
2022-08-04T05:07:50.329Z,95295.47
2022-08-04T05:11:59.994Z,95300.03
2022-08-04T05:15:49.385Z,95292.28
2022-08-04T05:19:39.577Z,95300.84
2022-08-04T05:23:24.727Z,95290.44
2022-08-04T05:27:13.520Z,95288.78
2022-08-04T05:31:00.888Z,95291.44
2022-08-04T05:34:45.872Z,95292.25
2022-08-04T05:38:31.298Z,95288.22
2022-08-04T05:42:14.328Z,95288.19
2022-08-04T05:45:59.495Z,95290.03
2022-08-04T05:49:42.981Z,95292.69
2022-08-04T05:53:26.377Z,95292.88
2022-08-04T05:57:09.937Z,95288.28
2022-08-04T06:00:53.179Z,95290.13
2022-08-04T06:04:40.230Z,95292.78
2022-08-04T06:08:24.181Z,95290.59
2022-08-04T06:12:10.660Z,95296.16
2022-08-04T06:15:56.101Z,95292.63
2022-08-04T06:19:59.651Z,95304.34
2022-08-04T06:23:53.743Z,95300.81
2022-08-04T06:27:44.061Z,95299.66
2022-08-04T06:32:30.374Z,95293.97
2022-08-04T06:35:47.885Z,95304.34
2022-08-04T06:39:31.636Z,95300.78
2022-08-04T06:43:14.482Z,95293.72
2022-08-04T06:46:58.184Z,95299.28
2022-08-04T06:51:29.426Z,95296.28
2022-08-04T06:54:51.086Z,95294.59
2022-08-04T06:58:34.508Z,95296.66
2022-08-04T07:02:24.562Z,95291.16
2022-08-04T07:06:14.248Z,95299.13
2022-08-04T07:09:59.133Z,95294.72
2022-08-04T07:13:45.161Z,95299.50
2022-08-04T07:17:34.757Z,95289.19
2022-08-04T07:21:22.202Z,95298.78
2022-08-04T07:25:12.894Z,95295.47
2022-08-04T07:28:56.819Z,95295.63
2022-08-04T07:32:39.940Z,95292.28
2022-08-04T07:36:22.841Z,95298.31
2022-08-04T07:40:15.372Z,95302.00
2022-08-04T07:43:58.283Z,95305.13
2022-08-04T07:47:41.139Z,95304.53
2022-08-04T07:51:44.324Z,95306.56
2022-08-04T07:55:29.956Z,95298.94
2022-08-04T07:59:12.878Z,95290.19
2022-08-04T08:02:56.523Z,95291.13
2022-08-04T08:06:43.154Z,95296.63
2022-08-04T08:10:27.877Z,95288.72
2022-08-04T08:14:10.937Z,95309.31
2022-08-04T08:17:58.409Z,95294.38
2022-08-04T08:21:59.787Z,95293.69
2022-08-04T08:25:44.593Z,95300.97
2022-08-04T08:29:27.464Z,95301.28
2022-08-04T08:33:14.368Z,95299.53
2022-08-04T08:37:00.763Z,95298.63
2022-08-04T08:40:52.670Z,95285.88
2022-08-04T08:45:12.749Z,95293.28
2022-08-04T08:50:00.855Z,95292.56
2022-08-04T08:53:32.071Z,95288.88
2022-08-04T08:57:59.286Z,95297.25
2022-08-04T09:01:53.651Z,95298.44
2022-08-04T09:05:53.033Z,95301.22
2022-08-04T09:09:47.844Z,95302.41
2022-08-04T09:13:35.446Z,95295.19
2022-08-04T09:17:23.794Z,95292.41
2022-08-04T09:21:15.064Z,95297.75
2022-08-04T09:25:02.839Z,95285.25
2022-08-04T09:28:54.426Z,95297.13
2022-08-04T09:32:44.110Z,95297.38
2022-08-04T09:36:32.207Z,95292.47
2022-08-04T09:40:29.009Z,95291.84
2022-08-04T09:44:50.266Z,95286.81
2022-08-04T09:48:36.806Z,95290.00
2022-08-04T09:52:28.179Z,95283.13
2022-08-04T09:56:16.107Z,95286.25
2022-08-04T10:00:04.984Z,95285.91
2022-08-04T10:03:52.081Z,95282.38
2022-08-04T10:08:04.782Z,95282.38
2022-08-04T10:12:10.272Z,95291.44
2022-08-04T10:16:07.281Z,95281.28
2022-08-04T10:19:57.904Z,95274.00
2022-08-04T10:23:55.947Z,95272.69
2022-08-04T10:27:45.113Z,95277.19
2022-08-04T10:31:30.825Z,95261.63
2022-08-04T10:35:15.811Z,95265.44
2022-08-04T10:39:04.676Z,95261.28
2022-08-04T10:42:54.880Z,95260.84
2022-08-04T10:46:44.888Z,95258.75
2022-08-04T10:50:29.306Z,95261.66
2022-08-04T10:54:14.612Z,95261.22
2022-08-04T10:58:02.235Z,95255.66
2022-08-04T11:01:59.924Z,95247.50
2022-08-04T11:05:48.197Z,95254.84
2022-08-04T11:09:31.664Z,95248.13
2022-08-04T11:13:22.030Z,95251.28
2022-08-04T11:17:19.096Z,95261.16
2022-08-04T11:21:06.123Z,95243.69
2022-08-04T11:24:55.062Z,95245.44
2022-08-04T11:28:44.477Z,95246.66
2022-08-04T11:32:46.240Z,95249.81
2022-08-04T11:36:33.685Z,95244.69
2022-08-04T11:40:22.976Z,95246.72
2022-08-04T11:44:10.590Z,95244.69
2022-08-04T11:48:01.056Z,95244.38
2022-08-04T11:51:44.414Z,95242.13
2022-08-04T11:55:30.633Z,95247.59
2022-08-04T11:59:13.347Z,95242.00
2022-08-04T12:03:16.956Z,95234.88
2022-08-04T12:07:40.605Z,95240.56
2022-08-04T12:11:17.602Z,95239.09
2022-08-04T12:15:05.694Z,95234.16
2022-08-04T12:18:53.336Z,95227.00
2022-08-04T12:22:40.997Z,95224.59
2022-08-04T12:26:28.447Z,95231.50
2022-08-04T12:30:58.403Z,95227.00
2022-08-04T12:34:21.776Z,95233.84
2022-08-04T12:38:06.764Z,95232.00
2022-08-04T12:41:59.378Z,95224.72
2022-08-04T12:45:48.762Z,95220.28
2022-08-04T12:49:33.880Z,95219.38
2022-08-04T12:53:31.604Z,95223.44
2022-08-04T12:57:16.094Z,95219.25
2022-08-04T13:01:02.250Z,95214.28
2022-08-04T13:05:08.681Z,95205.69
2022-08-04T13:08:51.483Z,95208.66
2022-08-04T13:12:34.389Z,95209.28
2022-08-04T13:16:17.278Z,95208.13
2022-08-04T13:20:00.203Z,95200.16
2022-08-04T13:24:10.445Z,95187.56
2022-08-04T13:27:55.333Z,95189.66
2022-08-04T13:31:44.982Z,95189.53
2022-08-04T13:35:56.128Z,95187.84
2022-08-04T13:39:55.649Z,95172.91
2022-08-04T13:44:18.894Z,95179.84
2022-08-04T13:47:50.069Z,95173.25
2022-08-04T13:51:58.073Z,95165.81
2022-08-04T13:55:38.127Z,95165.41
2022-08-04T13:59:24.329Z,95164.72
2022-08-04T14:03:22.999Z,95158.69
2022-08-04T14:07:18.036Z,95162.94
2022-08-04T14:11:06.838Z,95156.19
2022-08-04T14:14:51.264Z,95160.44
2022-08-04T14:18:34.013Z,95152.31
2022-08-04T14:22:30.239Z,95156.53
2022-08-04T14:26:31.734Z,95154.56
2022-08-04T14:30:24.167Z,95151.28
2022-08-04T14:34:09.869Z,95149.66
2022-08-04T14:38:03.415Z,95147.31
2022-08-04T14:41:49.377Z,95142.47
2022-08-04T14:45:33.933Z,95143.66
2022-08-04T14:49:16.678Z,95157.38
2022-08-04T14:53:04.576Z,95144.03
2022-08-04T14:56:55.565Z,95155.91
2022-08-04T15:00:38.645Z,95141.28
2022-08-04T15:04:24.713Z,95145.84
2022-08-04T15:08:07.654Z,95141.81
2022-08-04T15:11:50.416Z,95141.38
2022-08-04T15:15:37.330Z,95133.91
2022-08-04T15:19:23.881Z,95129.84
2022-08-04T15:23:10.653Z,95136.00
2022-08-04T15:26:54.670Z,95132.69
2022-08-04T15:30:39.513Z,95121.84
2022-08-04T15:34:23.770Z,95120.25
2022-08-04T15:38:09.691Z,95127.91
2022-08-04T15:41:59.726Z,95120.53
2022-08-04T15:46:04.076Z,95115.41
2022-08-04T15:50:05.016Z,95115.72
2022-08-04T15:54:27.526Z,95106.41
2022-08-04T15:58:16.776Z,95090.41
2022-08-04T16:02:32.668Z,95091.38
2022-08-04T16:06:45.287Z,95098.34
2022-08-04T16:10:38.415Z,95080.78
2022-08-04T16:14:36.920Z,95079.53
2022-08-04T16:18:39.401Z,95080.31
2022-08-04T16:22:35.980Z,95082.06
2022-08-04T16:26:45.822Z,95076.91
2022-08-04T16:30:29.170Z,95088.19
2022-08-04T16:34:36.848Z,95085.09
2022-08-04T16:38:17.553Z,95072.34
2022-08-04T16:42:00.356Z,95088.13
2022-08-04T16:45:50.853Z,95076.19
2022-08-04T16:49:50.199Z,95080.94
2022-08-04T16:53:52.485Z,95069.03
2022-08-04T16:57:42.428Z,95081.78
2022-08-04T17:01:33.390Z,95065.66
2022-08-04T17:05:39.804Z,95069.22
2022-08-04T17:09:28.586Z,95066.81
2022-08-04T17:14:03.100Z,95063.63
2022-08-04T17:18:05.498Z,95065.16
2022-08-04T17:21:34.131Z,95064.31
2022-08-04T17:25:18.297Z,95063.75
2022-08-04T17:29:01.516Z,95058.56
2022-08-04T17:32:44.666Z,95056.69
2022-08-04T17:36:28.506Z,95063.22
2022-08-04T17:40:14.106Z,95060.94
2022-08-04T17:44:03.052Z,95054.41
2022-08-04T17:47:52.246Z,95056.88
2022-08-04T17:52:05.236Z,95055.09
2022-08-04T17:55:47.176Z,95048.75
2022-08-04T17:59:55.760Z,95049.94
2022-08-04T18:03:40.221Z,95059.09
2022-08-04T18:11:29.579Z,95053.03
2022-08-04T18:15:40.525Z,95059.94
2022-08-04T18:19:31.559Z,95063.72
2022-08-04T18:23:16.533Z,95066.66
2022-08-04T18:26:59.721Z,95066.25
2022-08-04T18:30:55.234Z,95060.38
2022-08-04T18:34:40.787Z,95057.50
2022-08-04T18:38:37.643Z,95066.78
2022-08-04T18:42:38.679Z,95074.91
2022-08-04T18:46:26.970Z,95072.84
2022-08-04T18:51:00.404Z,95086.63
2022-08-04T18:54:12.934Z,95086.19
2022-08-04T18:58:00.825Z,95079.19
2022-08-04T19:02:13.205Z,95092.09
2022-08-04T19:05:48.955Z,95094.66
2022-08-04T19:09:50.968Z,95095.59
2022-08-04T19:13:34.787Z,95098.13
2022-08-04T19:17:53.953Z,95092.69
2022-08-04T19:21:59.197Z,95105.06
2022-08-04T19:26:02.172Z,95104.91
2022-08-04T19:29:37.758Z,95112.38
2022-08-04T19:33:25.007Z,95110.44
2022-08-04T19:37:08.466Z,95122.50
2022-08-04T19:40:52.768Z,95119.13
2022-08-04T19:44:35.821Z,95118.94
2022-08-04T19:48:30.534Z,95128.16
2022-08-04T19:52:13.572Z,95123.88
2022-08-04T19:55:56.329Z,95135.78
2022-08-04T19:59:39.132Z,95128.47
2022-08-04T20:04:09.813Z,95132.44
2022-08-04T20:07:35.438Z,95121.97
2022-08-04T20:11:20.574Z,95128.78
2022-08-04T20:15:03.706Z,95124.00
2022-08-04T20:18:54.942Z,95130.84
2022-08-04T20:26:43.699Z,95128.44
2022-08-04T20:30:33.094Z,95124.25
2022-08-04T20:34:17.377Z,95124.72
2022-08-04T20:38:01.582Z,95123.91
2022-08-04T20:41:44.937Z,95124.53
2022-08-04T20:45:57.067Z,95118.34
2022-08-04T20:49:35.084Z,95124.19
2022-08-04T20:53:18.418Z,95124.81
2022-08-04T20:57:01.503Z,95119.75
2022-08-04T21:00:44.225Z,95119.91
2022-08-04T21:08:57.117Z,95129.53
2022-08-04T21:12:40.430Z,95121.53
2022-08-04T21:16:54.040Z,95122.16
2022-08-04T21:20:28.364Z,95126.56
2022-08-04T21:24:13.507Z,95124.63
2022-08-04T21:28:03.959Z,95121.44
2022-08-04T21:31:51.100Z,95116.03
2022-08-04T21:35:39.834Z,95121.44
2022-08-04T21:39:22.865Z,95121.44
2022-08-04T21:43:15.150Z,95121.44
2022-08-04T21:46:58.824Z,95116.66
2022-08-04T21:50:42.895Z,95115.91
2022-08-04T21:54:25.659Z,95115.06
2022-08-04T21:58:08.391Z,95111.81
2022-08-04T22:01:54.700Z,95114.78
2022-08-04T22:05:37.735Z,95123.97
2022-08-04T22:09:22.445Z,95123.97
2022-08-04T22:13:06.829Z,95128.38
2022-08-04T22:16:51.916Z,95121.59
2022-08-04T22:20:37.196Z,95122.38
2022-08-04T22:24:19.948Z,95117.78
2022-08-04T22:28:07.894Z,95113.81
2022-08-04T22:31:55.621Z,95113.81
2022-08-04T22:35:44.430Z,95106.03
2022-08-04T22:39:32.290Z,95107.44
2022-08-04T22:43:32.289Z,95114.22
2022-08-04T22:47:20.631Z,95115.03
2022-08-04T22:51:07.727Z,95113.44
2022-08-04T22:54:50.958Z,95116.25
2022-08-04T22:58:35.824Z,95117.47
2022-08-04T23:02:18.569Z,95128.66
2022-08-04T23:06:04.248Z,95121.69
2022-08-04T23:09:51.130Z,95120.97
2022-08-04T23:13:35.571Z,95120.09
2022-08-04T23:17:24.549Z,95120.91
2022-08-04T23:21:08.109Z,95112.13
2022-08-04T23:24:53.047Z,95114.03
2022-08-04T23:28:37.469Z,95109.94
2022-08-04T23:32:20.559Z,95113.53
2022-08-04T23:36:05.855Z,95102.88
2022-08-04T23:40:14.403Z,95099.63
2022-08-04T23:43:55.293Z,95094.53
2022-08-04T23:48:15.242Z,95096.81
2022-08-04T23:51:41.283Z,95092.84
2022-08-04T23:55:25.354Z,95091.25
2022-08-04T23:59:17.896Z,95087.84
